Rechercher aéroport 
image banner adimage banner adimage banner ad
image banner ad

73PA - Gilbert

Situé à York, United States

ICAO - 73PA, IATA -

Données fournies par Airmate  

Information générale

Coordonnées: N39°55'46" W76°46'15"
Élévation : 530 feet MSL.
Variation magnétique : -10° East
Voir autres Aéroports à Pennsylvania

Données opérationnelles

Special qualification required
Heure actuelle UTC:
Heure actuelle locale:
Météo à : KTHV - York ( 9 km )
METAR: KTHV 150653Z AUTO 30005KT 10SM BKN060 BKN080 17/15 A2980 RMK AO2 SLP088 T01720150
Voir NOTAMs / SUP AIP / TFR affectant cet aéroport [VIEW]
Fréquences de communication: [VIEW]

Pistes:

Identifiant RWYQFULongueur (ft)Largeur (ft)SurfaceLDA (ft)
042220125GRASS
222220125GRASS

Coordonnées de l'aéroport

Adresse: York United States

Vue satellite de 73PA